EHKD/DHR METAR and TAF weather

Enter ICAO airport designator
Station Type Date Time Source
EHKD METAR 2023/06/01 16:25 UTC NOAA

EHKD 011625Z AUTO 36008KT 290V050 9999 FEW014 BKN018 OVC023 12/09 Q1023 WHT NOSIG


Station Type Date Time Source
EHKD Decoded METAR 2023/06/01 16:25 UTC NOAA

De Kooy, Netherlands (EHKD) 52-55N 004-47E 14M
Jun 01, 2023 - 12:25 PM EDT / 2023.06.01 1625 UTC
Wind: from the N (360 degrees) at 9 MPH (8 KT) (direction variable):0
Visibility: greater than 7 mile(s):0
Sky conditions: overcast
Temperature: 53 F (12 C)
Dew Point: 48 F (9 C)
Relative Humidity: 81%
Pressure (altimeter): 30.21 in. Hg (1023 hPa)
ob: EHKD 011625Z AUTO 36008KT 290V050 9999 FEW014 BKN018 OVC023 12/09 Q1023 WHT NOSIG
cycle: 16

Station Type Date Time Source
EHKD TAF 2023/06/01 13:06 UTC NOAA

TAF TAF EHKD 011237Z 0113/0201 36009KT 9999 OVC020 PROB30
TEMPO 0113/0118 01010G20KT SCT014 OVC018

Example: see airport list